Time;durP1;ratioP1;P1;durP2;ratioP2;P2;SDS_P1;SDS_P2;PMS_P1;PMS_P2;Temp;Humidity;BMP_temperature;BMP_pressure;BME280_temperature;BME280_humidity;BME280_pressure;Samples;Min_cycle;Max_cycle;Signal;HPM_P1;HPM_P2
2023/07/10 00:01:07;;;;;;;;;;;;;;;;;;5022053;28;94186;-73
2023/07/10 00:03:32;;;;;;;;;;;;;;;;;;5022638;28;92826;-74
2023/07/10 00:05:58;;;;;;;;;;;;;;;;;;5027011;27;93745;-78
2023/07/10 00:08:23;;;;;;;;;;;;;;;;;;5023367;27;92803;-74
2023/07/10 00:10:50;;;;;;;;;;;;;;;;;;5023933;27;92424;-73
2023/07/10 00:13:21;;;;;;;;;;;;;;;;;;5024041;27;93487;-76
2023/07/10 00:15:46;;;;;;;;;;;;;;;;;;5023423;27;93134;-72
2023/07/10 00:18:15;;;;;;;;;;;;;;;;;;5026805;27;92221;-77
2023/07/10 00:20:40;;;;;;;;;;;;;;;;;;5022942;28;94621;-73
2023/07/10 00:23:06;;;;;;;;;;;;;;;;;;5023925;27;92825;-74
2023/07/10 00:25:31;;;;;;;;;;;;;;;;;;5024108;28;92731;-74
2023/07/10 00:27:56;;;;;;;;;;;;;;;;;;5023586;28;92973;-74
2023/07/10 00:30:22;;;;;;;;;;;;;;;;;;5023989;28;92258;-74
2023/07/10 00:32:52;;;;;;;;;;;;;;;;;;5023771;27;92899;-74
2023/07/10 00:35:21;;;;;;;;;;;;;;;;;;5023243;28;92953;-73
2023/07/10 00:38:11;;;;;;;;;;;;;;;;;;5023760;28;91567;-74
2023/07/10 00:40:37;;;;;;;;;;;;;;;;;;5026075;27;93121;-74
2023/07/10 00:43:02;;;;;;;;;;;;;;;;;;5021624;28;93476;-74
2023/07/10 00:45:27;;;;;;;;;;;;;;;;;;5022967;28;93164;-74
2023/07/10 00:48:05;;;;;;;;;;;;;;;;;;5020937;28;93031;-77
2023/07/10 00:50:34;;;;;;;;;;;;;;;;;;5023978;27;92258;-79
2023/07/10 00:53:00;;;;;;;;;;;;;;;;;;5022352;28;94757;-78
2023/07/10 00:55:36;;;;;;;;;;;;;;;;;;5022206;28;92898;-75
2023/07/10 00:58:21;;;;;;;;;;;;;;;;;;5016542;28;92274;-78
2023/07/10 01:01:00;;;;;;;;;;;;;;;;;;5022832;28;93151;-76
2023/07/10 01:03:25;;;;;;;;;;;;;;;;;;5026992;27;92726;-74
2023/07/10 01:05:51;;;;;;;;;;;;;;;;;;5030704;27;93770;-78
2023/07/10 01:08:16;;;;;;;;;;;;;;;;;;5022889;28;93623;-74
2023/07/10 01:10:41;;;;;;;;;;;;;;;;;;5023175;28;93801;-74
2023/07/10 01:13:06;;;;;;;;;;;;;;;;;;5023256;28;93337;-74
2023/07/10 01:15:31;;;;;;;;;;;;;;;;;;5024014;28;92841;-78
2023/07/10 01:17:58;;;;;;;;;;;;;;;;;;5023561;28;93080;-77
2023/07/10 01:20:29;;;;;;;;;;;;;;;;;;5021895;28;92943;-73
2023/07/10 01:22:54;;;;;;;;;;;;;;;;;;5025502;28;93320;-74
2023/07/10 01:25:19;;;;;;;;;;;;;;;;;;5023022;28;92831;-74
2023/07/10 01:27:45;;;;;;;;;;;;;;;;;;5022395;28;93377;-74
2023/07/10 01:30:36;;;;;;;;;;;;;;;;;;5023039;28;93376;-74
2023/07/10 01:33:02;;;;;;;;;;;;;;;;;;5019173;28;92950;-75
2023/07/10 01:35:29;;;;;;;;;;;;;;;;;;5022641;27;93184;-75
2023/07/10 01:37:54;;;;;;;;;;;;;;;;;;5021117;28;93294;-72
2023/07/10 01:40:22;;;;;;;;;;;;;;;;;;5022783;28;93149;-73
2023/07/10 01:42:47;;;;;;;;;;;;;;;;;;5018007;27;92873;-73
2023/07/10 01:45:13;;;;;;;;;;;;;;;;;;5025797;28;92686;-76
2023/07/10 01:47:39;;;;;;;;;;;;;;;;;;5021653;27;93745;-73
2023/07/10 01:50:04;;;;;;;;;;;;;;;;;;5017834;28;92621;-73
2023/07/10 01:52:29;;;;;;;;;;;;;;;;;;5022915;28;92757;-74
2023/07/10 01:54:54;;;;;;;;;;;;;;;;;;5022083;28;94168;-75
2023/07/10 01:57:23;;;;;;;;;;;;;;;;;;5022317;28;92184;-74
2023/07/10 01:59:52;;;;;;;;;;;;;;;;;;5021091;27;93676;-73
2023/07/10 02:02:17;;;;;;;;;;;;;;;;;;5022356;27;93478;-73
2023/07/10 02:04:43;;;;;;;;;;;;;;;;;;5022368;28;92394;-73
2023/07/10 02:07:08;;;;;;;;;;;;;;;;;;5028920;28;92600;-74
2023/07/10 02:09:33;;;;;;;;;;;;;;;;;;5026716;28;92233;-73
2023/07/10 02:11:59;;;;;;;;;;;;;;;;;;5025396;28;92860;-73
2023/07/10 02:14:24;;;;;;;;;;;;;;;;;;5025502;28;93324;-73
2023/07/10 02:16:49;;;;;;;;;;;;;;;;;;5025936;27;92126;-74
2023/07/10 02:19:15;;;;;;;;;;;;;;;;;;5025315;28;92250;-75
2023/07/10 02:21:40;;;;;;;;;;;;;;;;;;5025871;27;92874;-73
2023/07/10 02:24:06;;;;;;;;;;;;;;;;;;5025535;28;93731;-73
2023/07/10 02:26:31;;;;;;;;;;;;;;;;;;5026018;27;94827;-76
2023/07/10 02:28:57;;;;;;;;;;;;;;;;;;5027292;27;93779;-78
2023/07/10 02:31:23;;;;;;;;;;;;;;;;;;5025510;28;92794;-76
2023/07/10 02:33:48;;;;;;;;;;;;;;;;;;5025480;27;93967;-73
2023/07/10 02:36:14;;;;;;;;;;;;;;;;;;5032155;27;92718;-73
2023/07/10 02:38:39;;;;;;;;;;;;;;;;;;5025348;27;92691;-75
2023/07/10 02:41:04;;;;;;;;;;;;;;;;;;5023022;28;92196;-74
2023/07/10 02:43:29;;;;;;;;;;;;;;;;;;5024642;28;92190;-74
2023/07/10 02:45:54;;;;;;;;;;;;;;;;;;5024721;28;92800;-72
2023/07/10 02:48:20;;;;;;;;;;;;;;;;;;5024126;28;94846;-74
2023/07/10 02:50:45;;;;;;;;;;;;;;;;;;5027804;27;92913;-75
2023/07/10 02:53:10;;;;;;;;;;;;;;;;;;5024742;28;92935;-75
2023/07/10 02:55:36;;;;;;;;;;;;;;;;;;5025141;28;92477;-77
2023/07/10 02:58:02;;;;;;;;;;;;;;;;;;5023643;28;92858;-75
2023/07/10 03:00:28;;;;;;;;;;;;;;;;;;5024789;27;93371;-74
2023/07/10 03:02:54;;;;;;;;;;;;;;;;;;5025433;27;92260;-79
2023/07/10 03:05:19;;;;;;;;;;;;;;;;;;5025229;27;92615;-80
2023/07/10 03:07:44;;;;;;;;;;;;;;;;;;5024941;28;92879;-73
2023/07/10 03:10:09;;;;;;;;;;;;;;;;;;5024946;28;92565;-72
2023/07/10 03:12:35;;;;;;;;;;;;;;;;;;5022159;28;93682;-74
2023/07/10 03:15:00;;;;;;;;;;;;;;;;;;5020792;28;92970;-74
2023/07/10 03:17:25;;;;;;;;;;;;;;;;;;5022869;28;92858;-74
2023/07/10 03:19:50;;;;;;;;;;;;;;;;;;5018253;27;92873;-75
2023/07/10 03:22:16;;;;;;;;;;;;;;;;;;5023030;27;92736;-76
2023/07/10 03:24:41;;;;;;;;;;;;;;;;;;5038566;27;95781;-75
2023/07/10 03:27:06;;;;;;;;;;;;;;;;;;5017731;28;93064;-75
2023/07/10 03:29:32;;;;;;;;;;;;;;;;;;5022474;28;91539;-76
2023/07/10 03:31:57;;;;;;;;;;;;;;;;;;5023131;28;94168;-74
2023/07/10 03:34:22;;;;;;;;;;;;;;;;;;5019029;28;92749;-74
2023/07/10 03:36:49;;;;;;;;;;;;;;;;;;5021023;27;93503;-75
2023/07/10 03:39:14;;;;;;;;;;;;;;;;;;5021932;27;92846;-74
2023/07/10 03:41:39;;;;;;;;;;;;;;;;;;5023542;28;92328;-77
2023/07/10 03:44:05;;;;;;;;;;;;;;;;;;5020880;28;93016;-73
2023/07/10 03:46:30;;;;;;;;;;;;;;;;;;5023402;27;92801;-73
2023/07/10 03:48:55;;;;;;;;;;;;;;;;;;5014250;28;92729;-73
2023/07/10 03:51:21;;;;;;;;;;;;;;;;;;5022983;28;93326;-74
2023/07/10 03:53:47;;;;;;;;;;;;;;;;;;5022485;28;93728;-76
2023/07/10 03:56:12;;;;;;;;;;;;;;;;;;5017422;27;92462;-75
2023/07/10 03:58:39;;;;;;;;;;;;;;;;;;5018673;28;93169;-75
2023/07/10 04:01:04;;;;;;;;;;;;;;;;;;5019862;28;93554;-76
2023/07/10 04:03:31;;;;;;;;;;;;;;;;;;5020081;28;93515;-74
2023/07/10 04:05:59;;;;;;;;;;;;;;;;;;5019927;28;93071;-74
2023/07/10 04:08:27;;;;;;;;;;;;;;;;;;5013361;28;93226;-75
2023/07/10 04:10:53;;;;;;;;;;;;;;;;;;5018624;28;92928;-74
2023/07/10 04:13:19;;;;;;;;;;;;;;;;;;5020997;28;93500;-76
2023/07/10 04:16:04;;;;;;;;;;;;;;;;;;5021761;27;94029;-75
2023/07/10 04:18:33;;;;;;;;;;;;;;;;;;5020464;28;92389;-75
2023/07/10 04:20:59;;;;;;;;;;;;;;;;;;5019198;28;94131;-75
2023/07/10 04:23:25;;;;;;;;;;;;;;;;;;5020518;28;92789;-76
2023/07/10 04:25:50;;;;;;;;;;;;;;;;;;5021057;27;93232;-75
2023/07/10 04:28:15;;;;;;;;;;;;;;;;;;5014359;28;92995;-75
2023/07/10 04:30:40;;;;;;;;;;;;;;;;;;5021409;28;92693;-76
2023/07/10 04:33:08;;;;;;;;;;;;;;;;;;5020373;28;92999;-76
2023/07/10 04:35:33;;;;;;;;;;;;;;;;;;5022639;27;92724;-75
2023/07/10 04:37:58;;;;;;;;;;;;;;;;;;5024901;28;93191;-74
2023/07/10 04:40:24;;;;;;;;;;;;;;;;;;5019635;28;93348;-73
2023/07/10 04:42:51;;;;;;;;;;;;;;;;;;5018245;28;95159;-74
2023/07/10 04:45:16;;;;;;;;;;;;;;;;;;5022019;27;92819;-73
2023/07/10 04:47:42;;;;;;;;;;;;;;;;;;5021489;28;92354;-74
2023/07/10 04:50:07;;;;;;;;;;;;;;;;;;5013165;28;93440;-74
2023/07/10 04:52:32;;;;;;;;;;;;;;;;;;5019611;28;92981;-74
2023/07/10 04:54:58;;;;;;;;;;;;;;;;;;5017899;28;92554;-76
2023/07/10 04:57:23;;;;;;;;;;;;;;;;;;5019916;27;92752;-74
2023/07/10 04:59:48;;;;;;;;;;;;;;;;;;5024704;28;93016;-74
2023/07/10 05:02:13;;;;;;;;;;;;;;;;;;5020618;28;95511;-75
2023/07/10 05:04:38;;;;;;;;;;;;;;;;;;5021107;28;93207;-64
2023/07/10 05:07:04;;;;;;;;;;;;;;;;;;5019472;28;91928;-67
2023/07/10 05:09:29;;;;;;;;;;;;;;;;;;5018073;28;94105;-67
2023/07/10 05:11:55;;;;;;;;;;;;;;;;;;5019657;27;93223;-73
2023/07/10 05:14:20;;;;;;;;;;;;;;;;;;5018030;28;93955;-71
2023/07/10 05:16:45;;;;;;;;;;;;;;;;;;5019602;28;94366;-68
2023/07/10 05:19:10;;;;;;;;;;;;;;;;;;5019691;28;92796;-66
2023/07/10 05:21:35;;;;;;;;;;;;;;;;;;5012778;27;93265;-68
2023/07/10 05:24:01;;;;;;;;;;;;;;;;;;5018636;27;94521;-73
2023/07/10 05:26:26;;;;;;;;;;;;;;;;;;5014254;27;92969;-68
2023/07/10 05:28:51;;;;;;;;;;;;;;;;;;5014501;28;92784;-71
2023/07/10 05:31:17;;;;;;;;;;;;;;;;;;5018184;28;92550;-65
2023/07/10 05:33:42;;;;;;;;;;;;;;;;;;5036015;27;92996;-65
2023/07/10 05:36:10;;;;;;;;;;;;;;;;;;5018658;27;93799;-66
2023/07/10 05:38:35;;;;;;;;;;;;;;;;;;5020543;28;94537;-65
2023/07/10 05:41:01;;;;;;;;;;;;;;;;;;5025196;27;93458;-66
2023/07/10 05:43:28;;;;;;;;;;;;;;;;;;5024342;27;93419;-65
2023/07/10 05:45:53;;;;;;;;;;;;;;;;;;5020799;28;94350;-70
2023/07/10 05:48:19;;;;;;;;;;;;;;;;;;5024346;27;92974;-71
2023/07/10 05:50:45;;;;;;;;;;;;;;;;;;5024086;27;92644;-66
2023/07/10 05:53:10;;;;;;;;;;;;;;;;;;5024388;28;92865;-67
2023/07/10 05:55:36;;;;;;;;;;;;;;;;;;5025990;28;92602;-72
2023/07/10 05:58:01;;;;;;;;;;;;;;;;;;5020996;28;93481;-69
2023/07/10 06:00:26;;;;;;;;;;;;;;;;;;5023185;28;92847;-72
2023/07/10 06:02:52;;;;;;;;;;;;;;;;;;5025182;27;93840;-68
2023/07/10 06:05:17;;;;;;;;;;;;;;;;;;5021785;28;92707;-70
2023/07/10 06:07:42;;;;;;;;;;;;;;;;;;5021318;28;93228;-68
2023/07/10 06:10:07;;;;;;;;;;;;;;;;;;5016298;28;93151;-67
2023/07/10 06:12:33;;;;;;;;;;;;;;;;;;5021400;27;93240;-67
2023/07/10 06:14:58;;;;;;;;;;;;;;;;;;5020357;27;92759;-68
2023/07/10 06:17:23;;;;;;;;;;;;;;;;;;5020279;28;93300;-69
2023/07/10 06:19:48;;;;;;;;;;;;;;;;;;5021906;28;91865;-72
2023/07/10 06:22:13;;;;;;;;;;;;;;;;;;5021166;27;92867;-72
2023/07/10 06:24:39;;;;;;;;;;;;;;;;;;5020611;28;92987;-72
2023/07/10 06:27:05;;;;;;;;;;;;;;;;;;5018743;28;93369;-72
2023/07/10 06:29:31;;;;;;;;;;;;;;;;;;5022876;27;93739;-72
2023/07/10 06:31:57;;;;;;;;;;;;;;;;;;5018481;27;93166;-72
2023/07/10 06:34:22;;;;;;;;;;;;;;;;;;5018508;27;92941;-72
2023/07/10 06:36:47;;;;;;;;;;;;;;;;;;5022076;28;93434;-72
2023/07/10 06:39:12;;;;;;;;;;;;;;;;;;5026837;27;93032;-72
2023/07/10 06:41:38;;;;;;;;;;;;;;;;;;5023782;28;93088;-72
2023/07/10 06:44:03;;;;;;;;;;;;;;;;;;5022893;28;93237;-72
2023/07/10 06:46:28;;;;;;;;;;;;;;;;;;5042234;27;92833;-72
2023/07/10 06:48:53;;;;;;;;;;;;;;;;;;5021009;28;93132;-72
2023/07/10 06:51:18;;;;;;;;;;;;;;;;;;5022176;28;96032;-74
2023/07/10 06:53:44;;;;;;;;;;;;;;;;;;5024146;28;93288;-73
2023/07/10 06:56:09;;;;;;;;;;;;;;;;;;5021153;28;93113;-72
2023/07/10 06:58:34;;;;;;;;;;;;;;;;;;5020184;28;92377;-74
2023/07/10 07:01:03;;;;;;;;;;;;;;;;;;5017351;28;93731;-73
2023/07/10 07:03:28;;;;;;;;;;;;;;;;;;5020772;28;95561;-72
2023/07/10 07:05:54;;;;;;;;;;;;;;;;;;5017244;28;92931;-72
2023/07/10 07:08:19;;;;;;;;;;;;;;;;;;5024145;28;92591;-73
2023/07/10 07:10:45;;;;;;;;;;;;;;;;;;5018593;27;93000;-73
2023/07/10 07:13:10;;;;;;;;;;;;;;;;;;5020775;27;92985;-73
2023/07/10 07:15:36;;;;;;;;;;;;;;;;;;5036718;27;95563;-74
2023/07/10 07:18:01;;;;;;;;;;;;;;;;;;5022940;28;92671;-72
2023/07/10 07:20:27;;;;;;;;;;;;;;;;;;5022107;28;93894;-73
2023/07/10 07:22:52;;;;;;;;;;;;;;;;;;5022118;28;93905;-74
2023/07/10 07:25:18;;;;;;;;;;;;;;;;;;5018559;28;92802;-73
2023/07/10 07:27:43;;;;;;;;;;;;;;;;;;5026561;28;93499;-73
2023/07/10 07:30:09;;;;;;;;;;;;;;;;;;5021018;28;92454;-73
2023/07/10 07:32:34;;;;;;;;;;;;;;;;;;5022773;27;94245;-73
2023/07/10 07:34:59;;;;;;;;;;;;;;;;;;5022915;28;92858;-72
2023/07/10 07:37:24;;;;;;;;;;;;;;;;;;5018790;28;93614;-72
2023/07/10 07:39:50;;;;;;;;;;;;;;;;;;5022999;28;93940;-72
2023/07/10 07:42:15;;;;;;;;;;;;;;;;;;5023163;28;92848;-72
2023/07/10 07:44:41;;;;;;;;;;;;;;;;;;5019501;28;92776;-70
2023/07/10 07:47:06;;;;;;;;;;;;;;;;;;5018869;28;92733;-71
2023/07/10 07:49:32;;;;;;;;;;;;;;;;;;5024075;28;93839;-70
2023/07/10 07:51:57;;;;;;;;;;;;;;;;;;5035019;27;96187;-70
2023/07/10 07:54:22;;;;;;;;;;;;;;;;;;5021010;28;92931;-69
2023/07/10 07:56:47;;;;;;;;;;;;;;;;;;5021765;28;92225;-74
2023/07/10 07:59:13;;;;;;;;;;;;;;;;;;5035026;27;94287;-72
2023/07/10 08:01:38;;;;;;;;;;;;;;;;;;5019135;27;93664;-70
2023/07/10 08:04:04;;;;;;;;;;;;;;;;;;5024051;27;95154;-71
2023/07/10 08:06:30;;;;;;;;;;;;;;;;;;5020384;28;93705;-70
2023/07/10 08:08:56;;;;;;;;;;;;;;;;;;5021241;27;92843;-70
2023/07/10 08:11:21;;;;;;;;;;;;;;;;;;5021216;28;93174;-70
2023/07/10 08:13:46;;;;;;;;;;;;;;;;;;5021842;28;93184;-70
2023/07/10 08:16:12;;;;;;;;;;;;;;;;;;5021367;27;92681;-70
2023/07/10 08:18:38;;;;;;;;;;;;;;;;;;5020510;28;95051;-70
2023/07/10 08:21:04;;;;;;;;;;;;;;;;;;5016155;28;92443;-70
2023/07/10 08:23:30;;;;;;;;;;;;;;;;;;5022285;27;92703;-71
2023/07/10 08:25:55;;;;;;;;;;;;;;;;;;5017860;27;92554;-70
2023/07/10 08:28:20;;;;;;;;;;;;;;;;;;5020724;28;93584;-72
2023/07/10 08:30:46;;;;;;;;;;;;;;;;;;5022316;28;92324;-69
2023/07/10 08:33:11;;;;;;;;;;;;;;;;;;5022061;28;93050;-72
2023/07/10 08:35:36;;;;;;;;;;;;;;;;;;5020273;28;93570;-71
2023/07/10 08:38:01;;;;;;;;;;;;;;;;;;5021135;28;93086;-71
2023/07/10 08:40:31;;;;;;;;;;;;;;;;;;5020940;28;94599;-71
2023/07/10 08:42:58;;;;;;;;;;;;;;;;;;5022005;28;93449;-71
2023/07/10 08:45:34;;;;;;;;;;;;;;;;;;5022281;28;92598;-71
2023/07/10 08:48:20;;;;;;;;;;;;;;;;;;5019601;27;94205;-71
2023/07/10 08:50:47;;;;;;;;;;;;;;;;;;5015625;28;93246;-70
2023/07/10 08:53:13;;;;;;;;;;;;;;;;;;5020012;27;93806;-71
2023/07/10 08:55:48;;;;;;;;;;;;;;;;;;5022840;28;93049;-70
2023/07/10 08:58:17;;;;;;;;;;;;;;;;;;5019804;28;93407;-70
2023/07/10 09:00:44;;;;;;;;;;;;;;;;;;5021061;27;92833;-69
2023/07/10 09:03:15;;;;;;;;;;;;;;;;;;5021522;28;92706;-70
2023/07/10 09:05:43;;;;;;;;;;;;;;;;;;5020483;28;92663;-73
2023/07/10 09:08:13;;;;;;;;;;;;;;;;;;5016876;27;92922;-72
2023/07/10 09:10:40;;;;;;;;;;;;;;;;;;5018774;28;91527;-75
2023/07/10 09:13:10;;;;;;;;;;;;;;;;;;5020204;27;92770;-72
2023/07/10 09:15:39;;;;;;;;;;;;;;;;;;5014638;28;95539;-74
2023/07/10 09:18:05;;;;;;;;;;;;;;;;;;5023255;28;93648;-72
2023/07/10 09:20:30;;;;;;;;;;;;;;;;;;5020409;28;92938;-73
2023/07/10 09:23:00;;;;;;;;;;;;;;;;;;5021282;28;93119;-72
2023/07/10 09:25:26;;;;;;;;;;;;;;;;;;5018906;28;93089;-74
2023/07/10 09:27:51;;;;;;;;;;;;;;;;;;5018008;27;93901;-73
2023/07/10 09:30:23;;;;;;;;;;;;;;;;;;5018833;28;93649;-71
2023/07/10 09:32:50;;;;;;;;;;;;;;;;;;5016995;28;93078;-72
2023/07/10 09:35:16;;;;;;;;;;;;;;;;;;5019479;27;92543;-71
2023/07/10 09:37:42;;;;;;;;;;;;;;;;;;5022351;28;92246;-73
2023/07/10 09:40:19;;;;;;;;;;;;;;;;;;5020101;28;92835;-74
2023/07/10 09:42:44;;;;;;;;;;;;;;;;;;5016006;28;94388;-70
2023/07/10 09:45:12;;;;;;;;;;;;;;;;;;5021041;27;93666;-70
2023/07/10 09:47:40;;;;;;;;;;;;;;;;;;5033896;27;94379;-72
2023/07/10 09:50:12;;;;;;;;;;;;;;;;;;5017873;28;93654;-72
2023/07/10 09:52:38;;;;;;;;;;;;;;;;;;5021886;27;93145;-70
2023/07/10 09:55:06;;;;;;;;;;;;;;;;;;5020363;28;92985;-70
2023/07/10 09:57:32;;;;;;;;;;;;;;;;;;5019472;28;92763;-71
2023/07/10 09:59:59;;;;;;;;;;;;;;;;;;5021356;28;92672;-69
2023/07/10 10:02:45;;;;;;;;;;;;;;;;;;5018511;27;93008;-68
2023/07/10 10:05:11;;;;;;;;;;;;;;;;;;5017386;28;92506;-68
2023/07/10 10:07:44;;;;;;;;;;;;;;;;;;5017703;28;94388;-72
2023/07/10 10:10:21;;;;;;;;;;;;;;;;;;5016786;28;92386;-69
2023/07/10 10:12:49;;;;;;;;;;;;;;;;;;5017211;28;93607;-68
2023/07/10 10:15:28;;;;;;;;;;;;;;;;;;5013199;28;95737;-68
2023/07/10 10:17:55;;;;;;;;;;;;;;;;;;5019952;27;93095;-70
2023/07/10 10:20:26;;;;;;;;;;;;;;;;;;5018312;28;93690;-70
2023/07/10 10:22:52;;;;;;;;;;;;;;;;;;5022084;27;94120;-69
2023/07/10 10:25:17;;;;;;;;;;;;;;;;;;5019426;28;92514;-73
2023/07/10 10:27:47;;;;;;;;;;;;;;;;;;5022291;27;92888;-68
2023/07/10 10:30:12;;;;;;;;;;;;;;;;;;5017091;28;92324;-69
2023/07/10 10:32:56;;;;;;;;;;;;;;;;;;5025314;28;93204;-74
2023/07/10 10:35:56;;;;;;;;;;;;;;;;;;5019229;28;93963;-75
2023/07/10 10:38:36;;;;;;;;;;;;;;;;;;4944632;28;92830;-74
2023/07/10 10:41:16;;;;;;;;;;;;;;;;;;5010935;28;95643;-77
2023/07/10 10:43:47;;;;;;;;;;;;;;;;;;5024674;27;94379;-76
2023/07/10 10:46:12;;;;;;;;;;;;;;;;;;5025593;27;92525;-76
2023/07/10 10:48:56;;;;;;;;;;;;;;;;;;5024494;28;92797;-76
2023/07/10 10:51:39;;;;;;;;;;;;;;;;;;5021521;28;93007;-76
2023/07/10 10:54:05;;;;;;;;;;;;;;;;;;5021070;28;92256;-69
2023/07/10 10:56:30;;;;;;;;;;;;;;;;;;5021452;28;92831;-71
2023/07/10 10:59:22;;;;;;;;;;;;;;;;;;5021497;28;93210;-68
2023/07/10 11:01:53;;;;;;;;;;;;;;;;;;5015643;28;93118;-72
2023/07/10 11:04:22;;;;;;;;;;;;;;;;;;5022941;28;93413;-70
2023/07/10 11:07:10;;;;;;;;;;;;;;;;;;5020623;27;92251;-73
2023/07/10 11:09:36;;;;;;;;;;;;;;;;;;5019516;28;92763;-69
2023/07/10 11:12:02;;;;;;;;;;;;;;;;;;5018772;28;93552;-69
2023/07/10 11:14:28;;;;;;;;;;;;;;;;;;5024009;28;94733;-69
2023/07/10 11:16:54;;;;;;;;;;;;;;;;;;5021999;28;93964;-68
2023/07/10 11:19:22;;;;;;;;;;;;;;;;;;5021562;28;92185;-69
2023/07/10 11:21:49;;;;;;;;;;;;;;;;;;5019127;28;94683;-68
2023/07/10 11:24:27;;;;;;;;;;;;;;;;;;5021926;27;93727;-68
2023/07/10 11:26:57;;;;;;;;;;;;;;;;;;5019472;27;92675;-72
2023/07/10 11:29:35;;;;;;;;;;;;;;;;;;5020771;28;92236;-75
2023/07/10 11:32:01;;;;;;;;;;;;;;;;;;5023537;28;93223;-71
2023/07/10 11:34:29;;;;;;;;;;;;;;;;;;5022562;28;94058;-71
2023/07/10 11:36:55;;;;;;;;;;;;;;;;;;5018724;28;92871;-76
2023/07/10 11:39:31;;;;;;;;;;;;;;;;;;5017090;28;93137;-70
2023/07/10 11:42:02;;;;;;;;;;;;;;;;;;5021786;28;93499;-70
2023/07/10 11:44:31;;;;;;;;;;;;;;;;;;5021387;28;95520;-74
2023/07/10 11:46:59;;;;;;;;;;;;;;;;;;5022839;28;92765;-73
2023/07/10 11:49:25;;;;;;;;;;;;;;;;;;5019946;28;93804;-72
2023/07/10 11:52:09;;;;;;;;;;;;;;;;;;5015156;28;93306;-68
2023/07/10 11:54:34;;;;;;;;;;;;;;;;;;5018528;28;92918;-69
2023/07/10 11:57:09;;;;;;;;;;;;;;;;;;5021887;28;92841;-70
2023/07/10 11:59:38;;;;;;;;;;;;;;;;;;5015939;28;92874;-68
2023/07/10 12:02:22;;;;;;;;;;;;;;;;;;5021456;28;94520;-70
2023/07/10 12:04:47;;;;;;;;;;;;;;;;;;5017352;28;93062;-70
2023/07/10 12:07:13;;;;;;;;;;;;;;;;;;5023982;28;91567;-70
2023/07/10 12:09:38;;;;;;;;;;;;;;;;;;5023443;27;92792;-71
2023/07/10 12:12:03;;;;;;;;;;;;;;;;;;5019370;28;93034;-73
2023/07/10 12:14:30;;;;;;;;;;;;;;;;;;5025887;28;93105;-69
2023/07/10 12:16:57;;;;;;;;;;;;;;;;;;5020203;28;92990;-71
2023/07/10 12:19:27;;;;;;;;;;;;;;;;;;5016660;28;93363;-68
2023/07/10 12:21:52;;;;;;;;;;;;;;;;;;5017105;27;92912;-68
2023/07/10 12:24:19;;;;;;;;;;;;;;;;;;5018505;28;95461;-72
2023/07/10 12:26:54;;;;;;;;;;;;;;;;;;5013540;27;92545;-71
2023/07/10 12:29:19;;;;;;;;;;;;;;;;;;5019985;28;92603;-66
2023/07/10 12:31:48;;;;;;;;;;;;;;;;;;5014931;28;93579;-71
2023/07/10 12:34:23;;;;;;;;;;;;;;;;;;5018176;28;94350;-71
2023/07/10 12:36:50;;;;;;;;;;;;;;;;;;5023390;28;93019;-67
2023/07/10 12:39:15;;;;;;;;;;;;;;;;;;5014410;27;93596;-69
2023/07/10 12:41:45;;;;;;;;;;;;;;;;;;5018609;28;93722;-72
2023/07/10 12:44:36;;;;;;;;;;;;;;;;;;5016839;28;93384;-68
2023/07/10 12:47:04;;;;;;;;;;;;;;;;;;5012711;28;94281;-72
2023/07/10 12:49:31;;;;;;;;;;;;;;;;;;5017822;28;92954;-70
2023/07/10 12:51:57;;;;;;;;;;;;;;;;;;5021092;27;93772;-70
2023/07/10 12:54:24;;;;;;;;;;;;;;;;;;5016691;28;92772;-74
2023/07/10 12:56:51;;;;;;;;;;;;;;;;;;5022132;28;92503;-75
2023/07/10 12:59:25;;;;;;;;;;;;;;;;;;5021126;28;93540;-70
2023/07/10 13:01:52;;;;;;;;;;;;;;;;;;5016818;28;92821;-74
2023/07/10 13:04:17;;;;;;;;;;;;;;;;;;5018515;28;94225;-73
2023/07/10 13:06:42;;;;;;;;;;;;;;;;;;5019252;28;93020;-71
2023/07/10 13:09:18;;;;;;;;;;;;;;;;;;5015508;27;94088;-73
2023/07/10 13:11:43;;;;;;;;;;;;;;;;;;5017613;28;93301;-73
2023/07/10 13:14:21;;;;;;;;;;;;;;;;;;5021710;28;92245;-73
2023/07/10 13:16:47;;;;;;;;;;;;;;;;;;5015853;28;93247;-70
2023/07/10 13:19:12;;;;;;;;;;;;;;;;;;5015711;28;94509;-72
2023/07/10 13:21:37;;;;;;;;;;;;;;;;;;5017431;27;92115;-71
2023/07/10 13:24:03;;;;;;;;;;;;;;;;;;5013596;28;92842;-71
2023/07/10 13:26:28;;;;;;;;;;;;;;;;;;5015153;28;92311;-73
2023/07/10 13:28:55;;;;;;;;;;;;;;;;;;5019155;27;94225;-72
2023/07/10 13:31:24;;;;;;;;;;;;;;;;;;5018215;27;92853;-69
2023/07/10 13:33:49;;;;;;;;;;;;;;;;;;5020077;28;93704;-70
2023/07/10 13:36:16;;;;;;;;;;;;;;;;;;5018838;28;95177;-68
2023/07/10 13:38:42;;;;;;;;;;;;;;;;;;5017696;27;94060;-70
2023/07/10 13:41:12;;;;;;;;;;;;;;;;;;5021411;28;92446;-70
2023/07/10 13:43:37;;;;;;;;;;;;;;;;;;5022588;27;93575;-73
2023/07/10 13:46:15;;;;;;;;;;;;;;;;;;5021889;28;91897;-69
2023/07/10 13:48:40;;;;;;;;;;;;;;;;;;5020408;28;94188;-71
2023/07/10 13:51:10;;;;;;;;;;;;;;;;;;5020288;28;93502;-68
2023/07/10 13:53:35;;;;;;;;;;;;;;;;;;5020188;27;93696;-69
2023/07/10 13:56:00;;;;;;;;;;;;;;;;;;5016767;28;94470;-73
2023/07/10 13:58:26;;;;;;;;;;;;;;;;;;5015335;28;92832;-71
2023/07/10 14:00:54;;;;;;;;;;;;;;;;;;5021449;27;93677;-72
2023/07/10 14:03:20;;;;;;;;;;;;;;;;;;5028467;27;92574;-69
2023/07/10 14:05:47;;;;;;;;;;;;;;;;;;5023155;28;92909;-68
2023/07/10 14:08:26;;;;;;;;;;;;;;;;;;5021239;28;95269;-69
2023/07/10 14:10:52;;;;;;;;;;;;;;;;;;5021371;28;94613;-72
2023/07/10 14:13:17;;;;;;;;;;;;;;;;;;5023081;28;93050;-72
2023/07/10 14:15:43;;;;;;;;;;;;;;;;;;5019765;27;94503;-69
2023/07/10 14:18:12;;;;;;;;;;;;;;;;;;5019992;27;93769;-72
2023/07/10 14:20:37;;;;;;;;;;;;;;;;;;5022734;28;92768;-71
2023/07/10 14:23:09;;;;;;;;;;;;;;;;;;5025077;28;93134;-73
2023/07/10 14:25:34;;;;;;;;;;;;;;;;;;5026052;28;93330;-72
2023/07/10 14:27:59;;;;;;;;;;;;;;;;;;5019098;28;93904;-68
2023/07/10 14:30:25;;;;;;;;;;;;;;;;;;5020462;28;92848;-71
2023/07/10 14:32:50;;;;;;;;;;;;;;;;;;5022028;27;92865;-69
2023/07/10 14:35:19;;;;;;;;;;;;;;;;;;5019206;28;92618;-70
2023/07/10 14:37:45;;;;;;;;;;;;;;;;;;5021468;28;95245;-70
2023/07/10 14:40:12;;;;;;;;;;;;;;;;;;5024507;28;92235;-69
2023/07/10 14:42:37;;;;;;;;;;;;;;;;;;5021830;27;94030;-70
2023/07/10 14:45:02;;;;;;;;;;;;;;;;;;5021350;28;93096;-71
2023/07/10 14:47:31;;;;;;;;;;;;;;;;;;5025628;28;92967;-70
2023/07/10 14:49:56;;;;;;;;;;;;;;;;;;5019822;27;94092;-68
2023/07/10 14:52:24;;;;;;;;;;;;;;;;;;5020817;28;94067;-70
2023/07/10 14:54:53;;;;;;;;;;;;;;;;;;5022005;27;93872;-69
2023/07/10 14:57:19;;;;;;;;;;;;;;;;;;5020604;28;92904;-69
2023/07/10 14:59:45;;;;;;;;;;;;;;;;;;5025451;27;91592;-73
2023/07/10 15:02:15;;;;;;;;;;;;;;;;;;5022745;27;93114;-72
2023/07/10 15:04:40;;;;;;;;;;;;;;;;;;5021366;27;92806;-70
2023/07/10 15:07:07;;;;;;;;;;;;;;;;;;5023669;28;94027;-73
2023/07/10 15:09:32;;;;;;;;;;;;;;;;;;5028024;28;93469;-72
2023/07/10 15:11:58;;;;;;;;;;;;;;;;;;5023209;28;92435;-74
2023/07/10 15:14:23;;;;;;;;;;;;;;;;;;5023900;28;92570;-75
2023/07/10 15:16:48;;;;;;;;;;;;;;;;;;5023844;28;92334;-75
2023/07/10 15:19:15;;;;;;;;;;;;;;;;;;5023967;28;92573;-74
2023/07/10 15:21:41;;;;;;;;;;;;;;;;;;5024736;28;92787;-75
2023/07/10 15:24:19;;;;;;;;;;;;;;;;;;5024183;28;92409;-74
2023/07/10 15:26:44;;;;;;;;;;;;;;;;;;5021765;28;92740;-73
2023/07/10 15:29:10;;;;;;;;;;;;;;;;;;5021329;28;92763;-73
2023/07/10 15:31:35;;;;;;;;;;;;;;;;;;5024161;28;94145;-71
2023/07/10 15:34:00;;;;;;;;;;;;;;;;;;5017879;28;94155;-68
2023/07/10 15:36:25;;;;;;;;;;;;;;;;;;5022679;28;92419;-68
2023/07/10 15:38:51;;;;;;;;;;;;;;;;;;5020688;28;93112;-67
2023/07/10 15:41:21;;;;;;;;;;;;;;;;;;5020540;27;94437;-68
2023/07/10 15:43:47;;;;;;;;;;;;;;;;;;5022804;28;92668;-70
2023/07/10 15:46:13;;;;;;;;;;;;;;;;;;5020754;28;92415;-71
2023/07/10 15:48:39;;;;;;;;;;;;;;;;;;5024223;28;92635;-68
2023/07/10 15:51:09;;;;;;;;;;;;;;;;;;5021809;28;95759;-68
2023/07/10 15:53:34;;;;;;;;;;;;;;;;;;5020117;27;92884;-72
2023/07/10 15:55:59;;;;;;;;;;;;;;;;;;5019580;28;93923;-74
2023/07/10 15:58:25;;;;;;;;;;;;;;;;;;5023666;28;92715;-73
2023/07/10 16:00:52;;;;;;;;;;;;;;;;;;5017751;27;92608;-72
2023/07/10 16:03:22;;;;;;;;;;;;;;;;;;5016569;27;92629;-73
2023/07/10 16:05:49;;;;;;;;;;;;;;;;;;5021499;28;92381;-74
2023/07/10 16:08:15;;;;;;;;;;;;;;;;;;5019404;28;92868;-72
2023/07/10 16:10:41;;;;;;;;;;;;;;;;;;5019478;28;95404;-73
2023/07/10 16:13:13;;;;;;;;;;;;;;;;;;5029105;27;93526;-69
2023/07/10 16:15:38;;;;;;;;;;;;;;;;;;5022724;27;92758;-73
2023/07/10 16:18:10;;;;;;;;;;;;;;;;;;5019146;28;92868;-75
2023/07/10 16:20:35;;;;;;;;;;;;;;;;;;5021915;28;93853;-73
2023/07/10 16:23:02;;;;;;;;;;;;;;;;;;5020629;28;92263;-72
2023/07/10 16:25:28;;;;;;;;;;;;;;;;;;5020215;27;92273;-73
2023/07/10 16:27:54;;;;;;;;;;;;;;;;;;5023279;28;92951;-71
2023/07/10 16:30:20;;;;;;;;;;;;;;;;;;5020597;28;93131;-73
2023/07/10 16:32:46;;;;;;;;;;;;;;;;;;5028161;27;92535;-73
2023/07/10 16:35:16;;;;;;;;;;;;;;;;;;5022007;28;93406;-73
2023/07/10 16:37:41;;;;;;;;;;;;;;;;;;5023864;28;91567;-72
2023/07/10 16:40:12;;;;;;;;;;;;;;;;;;5022673;27;92616;-72
2023/07/10 16:42:37;;;;;;;;;;;;;;;;;;5020126;28;93060;-73
2023/07/10 16:45:03;;;;;;;;;;;;;;;;;;5014461;28;93753;-73
2023/07/10 16:47:28;;;;;;;;;;;;;;;;;;5021796;28;94380;-74